sensor_id;sensor_type;location;lat;lon;timestamp;P1;durP1;ratioP1;P2;durP2;ratioP2
48667;SDS011;34453;52.198;5.004;2022-12-31T00:00:53;1.50;;;1.40;;
48667;SDS011;34453;52.198;5.004;2022-12-31T00:03:19;3.53;;;2.35;;
48667;SDS011;34453;52.198;5.004;2022-12-31T00:05:44;6.00;;;1.90;;
48667;SDS011;34453;52.198;5.004;2022-12-31T00:08:09;3.22;;;2.08;;
48667;SDS011;34453;52.198;5.004;2022-12-31T00:10:34;2.00;;;1.90;;
48667;SDS011;34453;52.198;5.004;2022-12-31T00:13:05;1.90;;;1.50;;
48667;SDS011;34453;52.198;5.004;2022-12-31T00:15:30;5.45;;;1.52;;
48667;SDS011;34453;52.198;5.004;2022-12-31T00:17:56;2.35;;;1.50;;
48667;SDS011;34453;52.198;5.004;2022-12-31T00:20:21;1.85;;;1.45;;
48667;SDS011;34453;52.198;5.004;2022-12-31T00:22:46;1.98;;;1.33;;
48667;SDS011;34453;52.198;5.004;2022-12-31T00:25:11;4.10;;;1.40;;
48667;SDS011;34453;52.198;5.004;2022-12-31T00:27:37;2.25;;;1.50;;
48667;SDS011;34453;52.198;5.004;2022-12-31T00:30:02;6.60;;;1.40;;
48667;SDS011;34453;52.198;5.004;2022-12-31T00:32:27;2.60;;;1.92;;
48667;SDS011;34453;52.198;5.004;2022-12-31T00:34:53;4.63;;;1.45;;
48667;SDS011;34453;52.198;5.004;2022-12-31T00:37:18;3.33;;;1.80;;
48667;SDS011;34453;52.198;5.004;2022-12-31T00:39:43;2.78;;;1.23;;
48667;SDS011;34453;52.198;5.004;2022-12-31T00:42:08;6.97;;;2.03;;
48667;SDS011;34453;52.198;5.004;2022-12-31T00:44:34;2.33;;;1.60;;
48667;SDS011;34453;52.198;5.004;2022-12-31T00:46:59;6.63;;;1.73;;
48667;SDS011;34453;52.198;5.004;2022-12-31T00:49:24;6.18;;;1.58;;
48667;SDS011;34453;52.198;5.004;2022-12-31T00:51:49;2.92;;;1.10;;
48667;SDS011;34453;52.198;5.004;2022-12-31T00:54:14;3.80;;;1.40;;
48667;SDS011;34453;52.198;5.004;2022-12-31T00:56:40;6.10;;;1.98;;
48667;SDS011;34453;52.198;5.004;2022-12-31T00:59:05;4.50;;;1.38;;
48667;SDS011;34453;52.198;5.004;2022-12-31T01:01:35;10.32;;;1.50;;
48667;SDS011;34453;52.198;5.004;2022-12-31T01:04:02;5.72;;;1.58;;
48667;SDS011;34453;52.198;5.004;2022-12-31T01:06:27;6.80;;;1.65;;
48667;SDS011;34453;52.198;5.004;2022-12-31T01:08:53;6.72;;;1.55;;
48667;SDS011;34453;52.198;5.004;2022-12-31T01:11:19;8.82;;;1.92;;
48667;SDS011;34453;52.198;5.004;2022-12-31T01:13:52;5.28;;;1.60;;
48667;SDS011;34453;52.198;5.004;2022-12-31T01:16:19;6.28;;;2.10;;
48667;SDS011;34453;52.198;5.004;2022-12-31T01:18:44;11.20;;;4.53;;
48667;SDS011;34453;52.198;5.004;2022-12-31T01:21:10;8.23;;;1.20;;
48667;SDS011;34453;52.198;5.004;2022-12-31T01:23:36;10.15;;;1.90;;
48667;SDS011;34453;52.198;5.004;2022-12-31T01:26:02;10.68;;;1.60;;
48667;SDS011;34453;52.198;5.004;2022-12-31T01:28:27;7.55;;;1.52;;
48667;SDS011;34453;52.198;5.004;2022-12-31T01:30:53;8.30;;;2.03;;
48667;SDS011;34453;52.198;5.004;2022-12-31T01:33:18;7.38;;;1.38;;
48667;SDS011;34453;52.198;5.004;2022-12-31T01:35:44;9.55;;;2.05;;
48667;SDS011;34453;52.198;5.004;2022-12-31T01:38:09;8.60;;;1.70;;
48667;SDS011;34453;52.198;5.004;2022-12-31T01:40:37;9.70;;;1.60;;
48667;SDS011;34453;52.198;5.004;2022-12-31T01:43:05;11.82;;;2.22;;
48667;SDS011;34453;52.198;5.004;2022-12-31T01:45:36;12.27;;;2.13;;
48667;SDS011;34453;52.198;5.004;2022-12-31T01:48:02;6.72;;;1.40;;
48667;SDS011;34453;52.198;5.004;2022-12-31T01:50:28;9.57;;;1.40;;
48667;SDS011;34453;52.198;5.004;2022-12-31T01:52:55;15.13;;;4.35;;
48667;SDS011;34453;52.198;5.004;2022-12-31T01:57:48;8.60;;;2.13;;
48667;SDS011;34453;52.198;5.004;2022-12-31T02:00:14;6.93;;;1.58;;
48667;SDS011;34453;52.198;5.004;2022-12-31T02:02:40;9.02;;;1.77;;
48667;SDS011;34453;52.198;5.004;2022-12-31T02:05:09;15.45;;;2.17;;
48667;SDS011;34453;52.198;5.004;2022-12-31T02:07:36;13.05;;;1.67;;
48667;SDS011;34453;52.198;5.004;2022-12-31T02:10:01;7.22;;;1.08;;
48667;SDS011;34453;52.198;5.004;2022-12-31T02:12:28;8.02;;;0.82;;
48667;SDS011;34453;52.198;5.004;2022-12-31T02:14:53;6.50;;;1.90;;
48667;SDS011;34453;52.198;5.004;2022-12-31T02:17:41;7.75;;;1.65;;
48667;SDS011;34453;52.198;5.004;2022-12-31T02:20:25;2.63;;;1.10;;
48667;SDS011;34453;52.198;5.004;2022-12-31T02:30:43;7.07;;;1.75;;
48667;SDS011;34453;52.198;5.004;2022-12-31T02:33:24;4.00;;;1.40;;
48667;SDS011;34453;52.198;5.004;2022-12-31T02:35:56;4.68;;;1.20;;
48667;SDS011;34453;52.198;5.004;2022-12-31T02:40:47;5.53;;;1.33;;
48667;SDS011;34453;52.198;5.004;2022-12-31T02:43:13;5.30;;;1.85;;
48667;SDS011;34453;52.198;5.004;2022-12-31T02:45:46;3.75;;;1.83;;
48667;SDS011;34453;52.198;5.004;2022-12-31T02:58:36;6.55;;;2.03;;
48667;SDS011;34453;52.198;5.004;2022-12-31T03:01:32;5.97;;;1.52;;
48667;SDS011;34453;52.198;5.004;2022-12-31T03:04:18;7.18;;;1.60;;
48667;SDS011;34453;52.198;5.004;2022-12-31T03:07:04;5.40;;;1.52;;
48667;SDS011;34453;52.198;5.004;2022-12-31T03:09:30;4.22;;;1.35;;
48667;SDS011;34453;52.198;5.004;2022-12-31T03:11:55;3.22;;;1.25;;
48667;SDS011;34453;52.198;5.004;2022-12-31T03:14:39;4.57;;;1.20;;
48667;SDS011;34453;52.198;5.004;2022-12-31T03:17:04;5.82;;;1.10;;
48667;SDS011;34453;52.198;5.004;2022-12-31T03:19:29;3.67;;;1.23;;
48667;SDS011;34453;52.198;5.004;2022-12-31T03:22:13;9.05;;;1.30;;
48667;SDS011;34453;52.198;5.004;2022-12-31T03:25:08;3.28;;;1.33;;
48667;SDS011;34453;52.198;5.004;2022-12-31T03:27:52;3.63;;;1.20;;
48667;SDS011;34453;52.198;5.004;2022-12-31T03:30:18;5.15;;;0.90;;
48667;SDS011;34453;52.198;5.004;2022-12-31T03:32:44;8.20;;;1.05;;
48667;SDS011;34453;52.198;5.004;2022-12-31T03:35:10;3.92;;;2.53;;
48667;SDS011;34453;52.198;5.004;2022-12-31T03:37:36;8.20;;;1.77;;
48667;SDS011;34453;52.198;5.004;2022-12-31T03:40:01;8.38;;;1.92;;
48667;SDS011;34453;52.198;5.004;2022-12-31T03:42:27;6.45;;;1.65;;
48667;SDS011;34453;52.198;5.004;2022-12-31T03:44:52;3.75;;;1.90;;
48667;SDS011;34453;52.198;5.004;2022-12-31T03:47:17;3.58;;;1.45;;
48667;SDS011;34453;52.198;5.004;2022-12-31T03:49:43;1.58;;;1.45;;
48667;SDS011;34453;52.198;5.004;2022-12-31T03:52:08;7.55;;;1.92;;
48667;SDS011;34453;52.198;5.004;2022-12-31T03:54:33;5.55;;;1.77;;
48667;SDS011;34453;52.198;5.004;2022-12-31T03:56:58;1.85;;;1.70;;
48667;SDS011;34453;52.198;5.004;2022-12-31T03:59:24;5.07;;;2.08;;
48667;SDS011;34453;52.198;5.004;2022-12-31T04:01:49;5.60;;;2.58;;
48667;SDS011;34453;52.198;5.004;2022-12-31T04:04:14;12.27;;;2.17;;
48667;SDS011;34453;52.198;5.004;2022-12-31T04:06:39;4.07;;;1.67;;
48667;SDS011;34453;52.198;5.004;2022-12-31T04:09:05;4.00;;;1.33;;
48667;SDS011;34453;52.198;5.004;2022-12-31T04:11:30;6.35;;;1.35;;
48667;SDS011;34453;52.198;5.004;2022-12-31T04:13:55;7.03;;;1.52;;
48667;SDS011;34453;52.198;5.004;2022-12-31T04:16:23;5.22;;;1.70;;
48667;SDS011;34453;52.198;5.004;2022-12-31T04:18:48;12.05;;;1.67;;
48667;SDS011;34453;52.198;5.004;2022-12-31T04:21:13;7.20;;;1.52;;
48667;SDS011;34453;52.198;5.004;2022-12-31T04:23:38;4.53;;;1.73;;
48667;SDS011;34453;52.198;5.004;2022-12-31T04:26:04;6.28;;;1.55;;
48667;SDS011;34453;52.198;5.004;2022-12-31T04:28:29;8.23;;;1.60;;
48667;SDS011;34453;52.198;5.004;2022-12-31T04:30:54;5.10;;;1.25;;
48667;SDS011;34453;52.198;5.004;2022-12-31T04:33:19;6.68;;;1.30;;
48667;SDS011;34453;52.198;5.004;2022-12-31T04:35:45;3.85;;;1.33;;
48667;SDS011;34453;52.198;5.004;2022-12-31T04:38:10;3.53;;;1.25;;
48667;SDS011;34453;52.198;5.004;2022-12-31T04:40:35;3.42;;;1.30;;
48667;SDS011;34453;52.198;5.004;2022-12-31T04:43:20;4.25;;;1.23;;
48667;SDS011;34453;52.198;5.004;2022-12-31T04:45:45;3.88;;;1.10;;
48667;SDS011;34453;52.198;5.004;2022-12-31T04:48:11;2.28;;;1.10;;
48667;SDS011;34453;52.198;5.004;2022-12-31T04:50:36;3.17;;;0.98;;
48667;SDS011;34453;52.198;5.004;2022-12-31T04:53:01;1.70;;;0.80;;
48667;SDS011;34453;52.198;5.004;2022-12-31T04:55:26;9.35;;;1.35;;
48667;SDS011;34453;52.198;5.004;2022-12-31T04:57:52;2.42;;;1.42;;
48667;SDS011;34453;52.198;5.004;2022-12-31T05:00:17;2.45;;;1.50;;
48667;SDS011;34453;52.198;5.004;2022-12-31T05:02:42;2.58;;;1.45;;
48667;SDS011;34453;52.198;5.004;2022-12-31T05:05:07;2.53;;;1.70;;
48667;SDS011;34453;52.198;5.004;2022-12-31T05:07:33;5.45;;;2.22;;
48667;SDS011;34453;52.198;5.004;2022-12-31T05:09:58;3.25;;;2.10;;
48667;SDS011;34453;52.198;5.004;2022-12-31T05:12:23;5.07;;;2.30;;
48667;SDS011;34453;52.198;5.004;2022-12-31T05:14:48;4.93;;;2.50;;
48667;SDS011;34453;52.198;5.004;2022-12-31T05:17:14;8.57;;;3.05;;
48667;SDS011;34453;52.198;5.004;2022-12-31T05:19:39;3.13;;;2.92;;
48667;SDS011;34453;52.198;5.004;2022-12-31T05:22:04;3.00;;;2.78;;
48667;SDS011;34453;52.198;5.004;2022-12-31T05:24:48;3.55;;;3.30;;
48667;SDS011;34453;52.198;5.004;2022-12-31T05:27:16;3.25;;;3.00;;
48667;SDS011;34453;52.198;5.004;2022-12-31T05:29:41;4.05;;;3.70;;
48667;SDS011;34453;52.198;5.004;2022-12-31T05:32:06;3.67;;;3.40;;
48667;SDS011;34453;52.198;5.004;2022-12-31T05:34:31;5.72;;;4.60;;
48667;SDS011;34453;52.198;5.004;2022-12-31T05:36:56;4.82;;;4.53;;
48667;SDS011;34453;52.198;5.004;2022-12-31T05:39:22;5.07;;;4.50;;
48667;SDS011;34453;52.198;5.004;2022-12-31T05:41:47;4.38;;;4.13;;
48667;SDS011;34453;52.198;5.004;2022-12-31T05:44:12;4.88;;;4.57;;
48667;SDS011;34453;52.198;5.004;2022-12-31T05:46:38;5.50;;;5.10;;
48667;SDS011;34453;52.198;5.004;2022-12-31T05:49:03;6.22;;;5.78;;
48667;SDS011;34453;52.198;5.004;2022-12-31T05:51:28;5.93;;;5.57;;
48667;SDS011;34453;52.198;5.004;2022-12-31T05:53:54;6.80;;;6.28;;
48667;SDS011;34453;52.198;5.004;2022-12-31T05:56:19;7.03;;;6.32;;
48667;SDS011;34453;52.198;5.004;2022-12-31T05:58:44;7.65;;;7.10;;
48667;SDS011;34453;52.198;5.004;2022-12-31T06:01:09;7.57;;;6.97;;
48667;SDS011;34453;52.198;5.004;2022-12-31T06:03:35;6.13;;;5.72;;
48667;SDS011;34453;52.198;5.004;2022-12-31T06:06:00;6.70;;;6.18;;
48667;SDS011;34453;52.198;5.004;2022-12-31T06:08:25;9.73;;;6.05;;
48667;SDS011;34453;52.198;5.004;2022-12-31T06:10:50;7.65;;;6.65;;
48667;SDS011;34453;52.198;5.004;2022-12-31T06:13:16;5.53;;;5.05;;
48667;SDS011;34453;52.198;5.004;2022-12-31T06:15:41;6.35;;;5.80;;
48667;SDS011;34453;52.198;5.004;2022-12-31T06:18:06;4.68;;;4.38;;
48667;SDS011;34453;52.198;5.004;2022-12-31T06:20:32;4.30;;;4.00;;
48667;SDS011;34453;52.198;5.004;2022-12-31T06:22:57;3.97;;;3.58;;
48667;SDS011;34453;52.198;5.004;2022-12-31T06:25:22;2.95;;;2.75;;
48667;SDS011;34453;52.198;5.004;2022-12-31T06:27:47;2.80;;;2.70;;
48667;SDS011;34453;52.198;5.004;2022-12-31T06:30:13;2.05;;;1.95;;
48667;SDS011;34453;52.198;5.004;2022-12-31T06:32:38;2.05;;;1.58;;
48667;SDS011;34453;52.198;5.004;2022-12-31T06:35:05;1.42;;;1.40;;
48667;SDS011;34453;52.198;5.004;2022-12-31T06:37:30;1.60;;;1.60;;
48667;SDS011;34453;52.198;5.004;2022-12-31T06:39:55;1.55;;;1.45;;
48667;SDS011;34453;52.198;5.004;2022-12-31T06:42:20;1.40;;;1.40;;
48667;SDS011;34453;52.198;5.004;2022-12-31T06:44:46;1.55;;;1.55;;
48667;SDS011;34453;52.198;5.004;2022-12-31T06:47:11;2.08;;;1.98;;
48667;SDS011;34453;52.198;5.004;2022-12-31T06:49:36;2.28;;;2.17;;
48667;SDS011;34453;52.198;5.004;2022-12-31T06:52:01;2.97;;;2.78;;
48667;SDS011;34453;52.198;5.004;2022-12-31T06:54:27;3.30;;;2.65;;
48667;SDS011;34453;52.198;5.004;2022-12-31T06:56:52;3.15;;;2.95;;
48667;SDS011;34453;52.198;5.004;2022-12-31T06:59:22;3.33;;;3.13;;
48667;SDS011;34453;52.198;5.004;2022-12-31T07:01:49;6.35;;;4.47;;
48667;SDS011;34453;52.198;5.004;2022-12-31T07:06:49;3.70;;;3.43;;
48667;SDS011;34453;52.198;5.004;2022-12-31T07:14:40;3.00;;;2.90;;
48667;SDS011;34453;52.198;5.004;2022-12-31T07:22:13;2.30;;;2.10;;
48667;SDS011;34453;52.198;5.004;2022-12-31T07:24:39;2.70;;;1.58;;
48667;SDS011;34453;52.198;5.004;2022-12-31T07:34:45;0.90;;;0.90;;
48667;SDS011;34453;52.198;5.004;2022-12-31T07:42:18;1.42;;;0.77;;
48667;SDS011;34453;52.198;5.004;2022-12-31T07:45:02;0.60;;;0.60;;
48667;SDS011;34453;52.198;5.004;2022-12-31T07:47:34;4.03;;;0.80;;
48667;SDS011;34453;52.198;5.004;2022-12-31T07:50:00;0.60;;;0.60;;
48667;SDS011;34453;52.198;5.004;2022-12-31T07:52:25;2.95;;;0.70;;
48667;SDS011;34453;52.198;5.004;2022-12-31T07:54:51;1.33;;;0.55;;
48667;SDS011;34453;52.198;5.004;2022-12-31T07:57:16;0.63;;;0.63;;
48667;SDS011;34453;52.198;5.004;2022-12-31T07:59:46;1.55;;;0.52;;
48667;SDS011;34453;52.198;5.004;2022-12-31T08:09:59;0.85;;;0.55;;
48667;SDS011;34453;52.198;5.004;2022-12-31T08:12:26;0.95;;;0.47;;
48667;SDS011;34453;52.198;5.004;2022-12-31T08:14:54;1.17;;;0.45;;
48667;SDS011;34453;52.198;5.004;2022-12-31T08:17:19;0.95;;;0.60;;
48667;SDS011;34453;52.198;5.004;2022-12-31T08:19:45;0.40;;;0.38;;
48667;SDS011;34453;52.198;5.004;2022-12-31T08:24:47;1.55;;;0.40;;
48667;SDS011;34453;52.198;5.004;2022-12-31T08:29:56;2.08;;;0.30;;
48667;SDS011;34453;52.198;5.004;2022-12-31T08:32:25;0.25;;;0.25;;
48667;SDS011;34453;52.198;5.004;2022-12-31T08:34:55;1.75;;;0.25;;
48667;SDS011;34453;52.198;5.004;2022-12-31T08:37:30;2.85;;;0.73;;
48667;SDS011;34453;52.198;5.004;2022-12-31T08:47:26;0.85;;;0.57;;
48667;SDS011;34453;52.198;5.004;2022-12-31T08:49:55;0.88;;;0.70;;
48667;SDS011;34453;52.198;5.004;2022-12-31T08:52:22;3.47;;;1.27;;
48667;SDS011;34453;52.198;5.004;2022-12-31T08:54:47;3.75;;;0.60;;
48667;SDS011;34453;52.198;5.004;2022-12-31T08:57:22;3.80;;;1.05;;
48667;SDS011;34453;52.198;5.004;2022-12-31T08:59:57;2.80;;;0.50;;
48667;SDS011;34453;52.198;5.004;2022-12-31T09:07:57;3.33;;;0.85;;
48667;SDS011;34453;52.198;5.004;2022-12-31T09:17:52;2.55;;;0.70;;
48667;SDS011;34453;52.198;5.004;2022-12-31T09:20:21;2.38;;;0.68;;
48667;SDS011;34453;52.198;5.004;2022-12-31T09:22:46;4.55;;;1.58;;
48667;SDS011;34453;52.198;5.004;2022-12-31T09:25:13;5.30;;;0.88;;
48667;SDS011;34453;52.198;5.004;2022-12-31T09:30:07;2.28;;;0.93;;
48667;SDS011;34453;52.198;5.004;2022-12-31T09:37:37;5.07;;;0.90;;
48667;SDS011;34453;52.198;5.004;2022-12-31T09:45:32;1.35;;;0.65;;
48667;SDS011;34453;52.198;5.004;2022-12-31T09:50:53;6.80;;;1.20;;
48667;SDS011;34453;52.198;5.004;2022-12-31T10:00:43;0.52;;;0.52;;
48667;SDS011;34453;52.198;5.004;2022-12-31T10:03:18;5.15;;;1.83;;
48667;SDS011;34453;52.198;5.004;2022-12-31T10:05:50;3.55;;;0.95;;
48667;SDS011;34453;52.198;5.004;2022-12-31T10:11:04;2.45;;;1.20;;
48667;SDS011;34453;52.198;5.004;2022-12-31T10:26:34;3.03;;;1.77;;
48667;SDS011;34453;52.198;5.004;2022-12-31T10:36:30;2.42;;;1.40;;
48667;SDS011;34453;52.198;5.004;2022-12-31T10:46:39;5.50;;;1.42;;
48667;SDS011;34453;52.198;5.004;2022-12-31T10:49:25;5.15;;;1.30;;
48667;SDS011;34453;52.198;5.004;2022-12-31T10:59:56;2.53;;;1.15;;
48667;SDS011;34453;52.198;5.004;2022-12-31T11:08:22;3.58;;;1.52;;
48667;SDS011;34453;52.198;5.004;2022-12-31T11:10:39;2.08;;;1.50;;
48667;SDS011;34453;52.198;5.004;2022-12-31T11:21:33;2.80;;;0.95;;
48667;SDS011;34453;52.198;5.004;2022-12-31T11:24:04;7.32;;;1.58;;
48667;SDS011;34453;52.198;5.004;2022-12-31T11:34:13;3.60;;;1.33;;
48667;SDS011;34453;52.198;5.004;2022-12-31T11:42:31;2.22;;;1.10;;
48667;SDS011;34453;52.198;5.004;2022-12-31T11:45:19;1.20;;;1.20;;
48667;SDS011;34453;52.198;5.004;2022-12-31T11:47:52;3.42;;;1.65;;
48667;SDS011;34453;52.198;5.004;2022-12-31T11:50:24;1.70;;;1.60;;
48667;SDS011;34453;52.198;5.004;2022-12-31T11:53:04;2.28;;;1.60;;
48667;SDS011;34453;52.198;5.004;2022-12-31T11:55:46;3.30;;;1.40;;
48667;SDS011;34453;52.198;5.004;2022-12-31T11:58:14;3.33;;;1.73;;
48667;SDS011;34453;52.198;5.004;2022-12-31T12:00:41;3.75;;;1.73;;
48667;SDS011;34453;52.198;5.004;2022-12-31T12:03:08;7.18;;;1.80;;
48667;SDS011;34453;52.198;5.004;2022-12-31T12:05:34;3.67;;;1.83;;
48667;SDS011;34453;52.198;5.004;2022-12-31T12:07:59;8.73;;;2.03;;
48667;SDS011;34453;52.198;5.004;2022-12-31T12:10:29;2.83;;;1.67;;
48667;SDS011;34453;52.198;5.004;2022-12-31T12:12:55;9.27;;;2.72;;
48667;SDS011;34453;52.198;5.004;2022-12-31T12:15:31;5.93;;;2.10;;
48667;SDS011;34453;52.198;5.004;2022-12-31T12:17:57;6.50;;;1.65;;
48667;SDS011;34453;52.198;5.004;2022-12-31T12:20:27;8.18;;;1.98;;
48667;SDS011;34453;52.198;5.004;2022-12-31T12:22:54;9.57;;;2.10;;
48667;SDS011;34453;52.198;5.004;2022-12-31T12:25:22;6.20;;;1.42;;
48667;SDS011;34453;52.198;5.004;2022-12-31T12:27:47;5.05;;;1.50;;
48667;SDS011;34453;52.198;5.004;2022-12-31T12:32:52;5.68;;;2.22;;
48667;SDS011;34453;52.198;5.004;2022-12-31T12:35:22;9.70;;;2.10;;
48667;SDS011;34453;52.198;5.004;2022-12-31T12:37:56;7.15;;;2.53;;
48667;SDS011;34453;52.198;5.004;2022-12-31T12:40:22;10.48;;;1.80;;
48667;SDS011;34453;52.198;5.004;2022-12-31T12:42:51;11.07;;;2.65;;
48667;SDS011;34453;52.198;5.004;2022-12-31T12:47:46;4.28;;;1.42;;
48667;SDS011;34453;52.198;5.004;2022-12-31T12:50:19;7.90;;;1.90;;
48667;SDS011;34453;52.198;5.004;2022-12-31T12:52:54;3.20;;;1.58;;
48667;SDS011;34453;52.198;5.004;2022-12-31T12:55:45;2.65;;;1.02;;
48667;SDS011;34453;52.198;5.004;2022-12-31T13:03:57;5.43;;;1.30;;
48667;SDS011;34453;52.198;5.004;2022-12-31T13:06:35;13.98;;;2.58;;
48667;SDS011;34453;52.198;5.004;2022-12-31T13:14:41;3.58;;;1.60;;
48667;SDS011;34453;52.198;5.004;2022-12-31T13:20:14;3.03;;;1.23;;
48667;SDS011;34453;52.198;5.004;2022-12-31T13:22:45;6.30;;;1.83;;
48667;SDS011;34453;52.198;5.004;2022-12-31T13:28:08;4.32;;;1.63;;
48667;SDS011;34453;52.198;5.004;2022-12-31T13:30:38;8.18;;;1.73;;
48667;SDS011;34453;52.198;5.004;2022-12-31T13:33:06;4.70;;;1.60;;
48667;SDS011;34453;52.198;5.004;2022-12-31T13:40:57;2.92;;;1.60;;
48667;SDS011;34453;52.198;5.004;2022-12-31T13:46:03;7.43;;;1.40;;
48667;SDS011;34453;52.198;5.004;2022-12-31T13:48:34;2.97;;;1.40;;
48667;SDS011;34453;52.198;5.004;2022-12-31T13:53:46;5.82;;;1.42;;
48667;SDS011;34453;52.198;5.004;2022-12-31T13:56:18;9.20;;;1.90;;
48667;SDS011;34453;52.198;5.004;2022-12-31T13:58:53;6.45;;;1.95;;
48667;SDS011;34453;52.198;5.004;2022-12-31T14:01:32;9.10;;;1.77;;
48667;SDS011;34453;52.198;5.004;2022-12-31T14:04:00;24.48;;;11.15;;
48667;SDS011;34453;52.198;5.004;2022-12-31T14:09:01;2.13;;;1.23;;
48667;SDS011;34453;52.198;5.004;2022-12-31T14:11:52;5.78;;;1.85;;
48667;SDS011;34453;52.198;5.004;2022-12-31T14:16:52;5.68;;;1.77;;
48667;SDS011;34453;52.198;5.004;2022-12-31T14:19:23;5.20;;;1.77;;
48667;SDS011;34453;52.198;5.004;2022-12-31T14:24:42;4.50;;;1.57;;
48667;SDS011;34453;52.198;5.004;2022-12-31T14:27:07;5.07;;;1.70;;
48667;SDS011;34453;52.198;5.004;2022-12-31T14:29:40;4.00;;;1.80;;
48667;SDS011;34453;52.198;5.004;2022-12-31T14:33:11;2.90;;;1.52;;
48667;SDS011;34453;52.198;5.004;2022-12-31T14:35:17;2.10;;;1.83;;
48667;SDS011;34453;52.198;5.004;2022-12-31T14:37:51;3.03;;;1.40;;
48667;SDS011;34453;52.198;5.004;2022-12-31T14:40:40;5.72;;;2.20;;
48667;SDS011;34453;52.198;5.004;2022-12-31T14:43:26;5.97;;;1.38;;
48667;SDS011;34453;52.198;5.004;2022-12-31T14:48:35;6.68;;;2.17;;
48667;SDS011;34453;52.198;5.004;2022-12-31T14:51:03;5.88;;;2.10;;
48667;SDS011;34453;52.198;5.004;2022-12-31T14:53:28;7.70;;;2.33;;
48667;SDS011;34453;52.198;5.004;2022-12-31T14:55:58;3.00;;;1.98;;
48667;SDS011;34453;52.198;5.004;2022-12-31T14:58:31;4.55;;;1.50;;
48667;SDS011;34453;52.198;5.004;2022-12-31T15:01:04;4.05;;;1.33;;
48667;SDS011;34453;52.198;5.004;2022-12-31T15:11:09;4.07;;;1.70;;
48667;SDS011;34453;52.198;5.004;2022-12-31T15:18:45;12.48;;;2.55;;
48667;SDS011;34453;52.198;5.004;2022-12-31T15:24:21;12.23;;;3.20;;
48667;SDS011;34453;52.198;5.004;2022-12-31T15:26:49;7.82;;;2.70;;
48667;SDS011;34453;52.198;5.004;2022-12-31T15:29:33;6.88;;;2.17;;
48667;SDS011;34453;52.198;5.004;2022-12-31T15:32:01;6.72;;;2.50;;
48667;SDS011;34453;52.198;5.004;2022-12-31T15:34:34;7.78;;;2.53;;
48667;SDS011;34453;52.198;5.004;2022-12-31T15:37:04;3.85;;;3.40;;
48667;SDS011;34453;52.198;5.004;2022-12-31T15:41:55;12.88;;;3.38;;
48667;SDS011;34453;52.198;5.004;2022-12-31T15:49:48;6.47;;;2.38;;
48667;SDS011;34453;52.198;5.004;2022-12-31T15:52:15;13.13;;;2.58;;
48667;SDS011;34453;52.198;5.004;2022-12-31T15:54:49;10.73;;;2.97;;
48667;SDS011;34453;52.198;5.004;2022-12-31T15:59:50;6.38;;;2.72;;
48667;SDS011;34453;52.198;5.004;2022-12-31T16:02:25;14.63;;;2.90;;
48667;SDS011;34453;52.198;5.004;2022-12-31T16:04:50;15.93;;;2.88;;
48667;SDS011;34453;52.198;5.004;2022-12-31T16:07:16;16.42;;;4.45;;
48667;SDS011;34453;52.198;5.004;2022-12-31T16:09:42;7.55;;;2.83;;
48667;SDS011;34453;52.198;5.004;2022-12-31T16:12:14;8.20;;;3.05;;
48667;SDS011;34453;52.198;5.004;2022-12-31T16:14:43;6.55;;;2.50;;
48667;SDS011;34453;52.198;5.004;2022-12-31T16:17:55;12.82;;;3.15;;
48667;SDS011;34453;52.198;5.004;2022-12-31T16:19:58;7.80;;;2.70;;
48667;SDS011;34453;52.198;5.004;2022-12-31T16:22:28;9.30;;;3.08;;
48667;SDS011;34453;52.198;5.004;2022-12-31T16:24:54;10.23;;;3.47;;
48667;SDS011;34453;52.198;5.004;2022-12-31T16:27:20;8.00;;;3.80;;
48667;SDS011;34453;52.198;5.004;2022-12-31T16:29:46;15.07;;;2.83;;
48667;SDS011;34453;52.198;5.004;2022-12-31T16:32:14;9.43;;;2.75;;
48667;SDS011;34453;52.198;5.004;2022-12-31T16:34:39;14.05;;;3.40;;
48667;SDS011;34453;52.198;5.004;2022-12-31T16:37:06;7.20;;;2.55;;
48667;SDS011;34453;52.198;5.004;2022-12-31T16:39:37;13.10;;;3.15;;
48667;SDS011;34453;52.198;5.004;2022-12-31T16:44:37;7.88;;;3.00;;
48667;SDS011;34453;52.198;5.004;2022-12-31T16:47:02;13.93;;;3.33;;
48667;SDS011;34453;52.198;5.004;2022-12-31T16:49:28;13.90;;;3.28;;
48667;SDS011;34453;52.198;5.004;2022-12-31T16:51:55;14.27;;;4.15;;
48667;SDS011;34453;52.198;5.004;2022-12-31T16:54:27;8.50;;;3.97;;
48667;SDS011;34453;52.198;5.004;2022-12-31T16:56:53;11.30;;;4.28;;
48667;SDS011;34453;52.198;5.004;2022-12-31T17:01:46;7.43;;;3.53;;
48667;SDS011;34453;52.198;5.004;2022-12-31T17:04:14;9.05;;;2.88;;
48667;SDS011;34453;52.198;5.004;2022-12-31T17:06:41;9.00;;;3.95;;
48667;SDS011;34453;52.198;5.004;2022-12-31T17:09:13;9.13;;;3.72;;
48667;SDS011;34453;52.198;5.004;2022-12-31T17:11:52;10.90;;;3.60;;
48667;SDS011;34453;52.198;5.004;2022-12-31T17:14:19;10.90;;;3.80;;
48667;SDS011;34453;52.198;5.004;2022-12-31T17:17:00;10.48;;;4.50;;
48667;SDS011;34453;52.198;5.004;2022-12-31T17:21:57;13.77;;;4.78;;
48667;SDS011;34453;52.198;5.004;2022-12-31T17:24:23;10.15;;;3.80;;
48667;SDS011;34453;52.198;5.004;2022-12-31T17:26:49;13.60;;;4.03;;
48667;SDS011;34453;52.198;5.004;2022-12-31T17:29:18;5.90;;;2.85;;
48667;SDS011;34453;52.198;5.004;2022-12-31T17:32:45;11.15;;;3.58;;
48667;SDS011;34453;52.198;5.004;2022-12-31T17:34:47;6.93;;;2.95;;
48667;SDS011;34453;52.198;5.004;2022-12-31T17:37:17;11.68;;;2.83;;
48667;SDS011;34453;52.198;5.004;2022-12-31T17:39:44;11.88;;;3.00;;
48667;SDS011;34453;52.198;5.004;2022-12-31T17:42:09;6.32;;;3.03;;
48667;SDS011;34453;52.198;5.004;2022-12-31T17:44:36;7.30;;;3.25;;
48667;SDS011;34453;52.198;5.004;2022-12-31T17:47:02;5.80;;;2.88;;
48667;SDS011;34453;52.198;5.004;2022-12-31T17:49:30;14.88;;;3.50;;
48667;SDS011;34453;52.198;5.004;2022-12-31T17:51:56;3.92;;;3.05;;
48667;SDS011;34453;52.198;5.004;2022-12-31T17:54:21;10.07;;;3.40;;
48667;SDS011;34453;52.198;5.004;2022-12-31T17:56:47;10.60;;;3.58;;
48667;SDS011;34453;52.198;5.004;2022-12-31T17:59:16;9.20;;;3.10;;
48667;SDS011;34453;52.198;5.004;2022-12-31T18:01:42;9.65;;;3.78;;
48667;SDS011;34453;52.198;5.004;2022-12-31T18:04:14;15.43;;;4.18;;
48667;SDS011;34453;52.198;5.004;2022-12-31T18:06:40;7.13;;;3.22;;
48667;SDS011;34453;52.198;5.004;2022-12-31T18:09:05;5.78;;;3.58;;
48667;SDS011;34453;52.198;5.004;2022-12-31T18:11:30;4.43;;;2.90;;
48667;SDS011;34453;52.198;5.004;2022-12-31T18:13:56;9.10;;;3.05;;
48667;SDS011;34453;52.198;5.004;2022-12-31T18:16:21;8.85;;;4.65;;
48667;SDS011;34453;52.198;5.004;2022-12-31T18:18:46;10.20;;;3.20;;
48667;SDS011;34453;52.198;5.004;2022-12-31T18:21:16;12.90;;;4.00;;
48667;SDS011;34453;52.198;5.004;2022-12-31T18:23:44;15.13;;;5.40;;
48667;SDS011;34453;52.198;5.004;2022-12-31T18:26:17;13.77;;;3.83;;
48667;SDS011;34453;52.198;5.004;2022-12-31T18:28:43;7.82;;;4.05;;
48667;SDS011;34453;52.198;5.004;2022-12-31T18:31:41;11.52;;;3.72;;
48667;SDS011;34453;52.198;5.004;2022-12-31T18:33:59;6.07;;;3.28;;
48667;SDS011;34453;52.198;5.004;2022-12-31T18:36:26;12.52;;;4.53;;
48667;SDS011;34453;52.198;5.004;2022-12-31T18:38:51;12.00;;;4.82;;
48667;SDS011;34453;52.198;5.004;2022-12-31T18:41:17;12.90;;;4.25;;
48667;SDS011;34453;52.198;5.004;2022-12-31T18:43:43;11.15;;;4.80;;
48667;SDS011;34453;52.198;5.004;2022-12-31T18:46:12;13.30;;;3.28;;
48667;SDS011;34453;52.198;5.004;2022-12-31T18:48:38;12.70;;;4.65;;
48667;SDS011;34453;52.198;5.004;2022-12-31T18:51:05;15.35;;;4.82;;
48667;SDS011;34453;52.198;5.004;2022-12-31T18:53:31;11.07;;;4.38;;
48667;SDS011;34453;52.198;5.004;2022-12-31T18:55:56;17.23;;;4.85;;
48667;SDS011;34453;52.198;5.004;2022-12-31T18:58:22;16.73;;;4.65;;
48667;SDS011;34453;52.198;5.004;2022-12-31T19:00:47;11.07;;;4.18;;
48667;SDS011;34453;52.198;5.004;2022-12-31T19:03:16;9.75;;;4.40;;